aviador You're here:

MMPA Decoded Metar

POZA RICO in MEXICO
Report Time2017-08-18 17:43:00
UTC Time2017-08-18 18:19:14
Flight Rules mvfr MVFR
Wind120° at 04 kt
W.Decomp.*RWY 08: 3.3 kt HW 2.3 kt RCW
W.Rank120° ranks 5
Current wind is below 120° avg. (7.3)
Visibility8047 m
Phenomena:N/A
Clouds:Broken 020 Hf
Expected CloudBase > 2,800 ft AGL from Temp-Dew spread
Ceiling2,000 ft
Temp32°C (ISA +18)
Dew Point25°C (67% RH)
Heat Index39.3°C
QNH1018 hPa
Density Alt2,759 ft
Elevation466 ft
Report Wrong Elevation
Raw Report
MMPA 181743Z 12004KT 5SM BKN020 32/25 A3005 RMK SLP151 57005 900
8/100 HZY=

Extra information for MMPA:More info

Metar Taf Metar & Taf Last 4 Metars F.Rules Stats Wind Profile Meteogram Temp Stats Airport Information Weather charts Add Link Nearby VenuesMetar ALERT Operation Metar Decoded Social comments